Time;durP1;ratioP1;P1;durP2;ratioP2;P2;SDS_P1;SDS_P2;PMS_P1;PMS_P2;Temp;Humidity;BMP_temperature;BMP_pressure;BME280_temperature;BME280_humidity;BME280_pressure;Samples;Min_cycle;Max_cycle;Signal;HPM_P1;HPM_P2
2021/05/29 00:00:03;;;;;;;6.97;3.80;;;;;;;18.16;100.00;99605.84;1747433;80;21099;-72
2021/05/29 00:02:31;;;;;;;6.30;3.77;;;;;;;18.16;100.00;99599.25;1702285;82;21046;-69
2021/05/29 00:04:58;;;;;;;8.57;3.90;;;;;;;18.15;100.00;99602.94;1774637;79;21044;-70
2021/05/29 00:07:26;;;;;;;7.77;3.83;;;;;;;18.14;100.00;99604.50;1750376;80;20999;-62
2021/05/29 00:09:53;;;;;;;7.23;4.17;;;;;;;18.12;100.00;99606.07;1782691;80;21044;-71
2021/05/29 00:12:20;;;;;;;8.03;3.70;;;;;;;18.11;100.00;99611.08;1758170;80;21625;-71
2021/05/29 00:14:48;;;;;;;6.03;3.87;;;;;;;18.10;100.00;99602.88;1790020;79;21748;-72
2021/05/29 00:17:18;;;;;;;9.33;3.80;;;;;;;18.09;100.00;99589.95;1765934;80;21040;-71
2021/05/29 00:19:45;;;;;;;5.07;3.03;;;;;;;18.07;100.00;99587.57;1765435;80;21701;-62
2021/05/29 00:22:12;;;;;;;5.93;2.30;;;;;;;18.06;100.00;99579.89;1750723;81;21071;-63
2021/05/29 00:24:38;;;;;;;3.57;2.10;;;;;;;18.04;100.00;99581.47;1748556;80;20909;-71
2021/05/29 00:27:06;;;;;;;4.07;2.20;;;;;;;18.04;100.00;99571.45;1790831;79;21051;-66
2021/05/29 00:29:33;;;;;;;5.00;2.57;;;;;;;18.07;100.00;99573.06;1785929;78;21107;-64
2021/05/29 00:31:59;;;;;;;3.67;2.47;;;;;;;18.10;100.00;99565.95;1786753;79;21023;-70
2021/05/29 00:34:26;;;;;;;4.37;2.10;;;;;;;18.12;100.00;99566.51;1786643;79;22364;-63
2021/05/29 00:36:52;;;;;;;5.90;3.00;;;;;;;18.14;100.00;99572.31;1786460;80;20979;-73
2021/05/29 00:39:19;;;;;;;9.13;4.00;;;;;;;18.18;100.00;99572.12;1785832;79;21120;-72
2021/05/29 00:41:45;;;;;;;7.30;3.43;;;;;;;18.21;100.00;99568.95;1812512;78;20889;-64
2021/05/29 00:44:15;;;;;;;7.60;4.17;;;;;;;18.17;100.00;99563.91;1800159;78;21052;-65
2021/05/29 00:46:42;;;;;;;7.27;3.77;;;;;;;18.15;100.00;99563.91;1759916;81;21015;-73
2021/05/29 00:49:09;;;;;;;7.37;3.33;;;;;;;18.11;100.00;99562.29;1779792;80;20972;-73
2021/05/29 00:51:37;;;;;;;8.33;4.40;;;;;;;18.09;100.00;99564.89;1785010;80;20957;-72
2021/05/29 00:54:06;;;;;;;10.63;5.30;;;;;;;18.07;100.00;99568.28;1761656;80;20973;-61
2021/05/29 00:56:33;;;;;;;8.00;4.83;;;;;;;17.99;100.00;99562.44;1784825;78;21027;-73
2021/05/29 00:59:02;;;;;;;13.40;5.03;;;;;;;17.95;100.00;99556.56;1789161;79;20968;-73
2021/05/29 01:01:30;;;;;;;9.00;4.60;;;;;;;17.94;100.00;99560.26;1786094;80;21459;-73
2021/05/29 01:03:57;;;;;;;10.33;5.83;;;;;;;17.95;100.00;99557.36;1763813;80;21020;-62
2021/05/29 01:06:23;;;;;;;11.43;5.93;;;;;;;17.96;100.00;99556.34;1788789;79;21598;-72
2021/05/29 01:08:50;;;;;;;11.47;5.70;;;;;;;17.98;100.00;99552.13;1797577;79;21782;-69
2021/05/29 01:11:17;;;;;;;11.27;5.00;;;;;;;17.99;100.00;99555.84;1784378;78;20937;-73
2021/05/29 01:13:43;;;;;;;7.73;4.97;;;;;;;17.98;100.00;99559.51;1778533;79;21518;-73
2021/05/29 01:16:19;;;;;;;8.60;5.27;;;;;;;17.99;100.00;99557.16;1787579;79;20990;-62
2021/05/29 01:18:39;;;;;;;8.37;4.80;;;;;;;18.00;100.00;99554.00;1797267;79;21444;-72
2021/05/29 01:21:06;;;;;;;6.63;4.80;;;;;;;17.99;100.00;99556.34;1794311;78;21050;-70
2021/05/29 01:23:33;;;;;;;6.10;4.37;;;;;;;17.97;100.00;99559.77;1788652;78;21644;-70
2021/05/29 01:26:00;;;;;;;8.87;4.30;;;;;;;17.94;100.00;99554.98;1789169;79;21038;-62
2021/05/29 01:28:29;;;;;;;6.07;3.83;;;;;;;17.93;100.00;99552.08;1766141;81;21143;-72
2021/05/29 01:31:06;;;;;;;12.03;5.00;;;;;;;17.92;100.00;99559.72;1790250;78;20934;-70
2021/05/29 01:33:34;;;;;;;8.23;4.37;;;;;;;17.93;100.00;99554.72;1800357;78;21103;-73
2021/05/29 01:36:05;;;;;;;8.33;4.73;;;;;;;17.96;100.00;99560.81;1797272;79;21021;-62
2021/05/29 01:38:34;;;;;;;11.30;5.10;;;;;;;17.96;100.00;99554.23;1787079;78;21066;-72
2021/05/29 01:41:05;;;;;;;7.00;4.53;;;;;;;17.96;100.00;99558.18;1789296;79;21886;-71
2021/05/29 01:43:35;;;;;;;8.18;5.28;;;;;;;17.98;100.00;99552.13;1785609;79;21039;-73
2021/05/29 01:46:04;;;;;;;10.65;4.78;;;;;;;17.98;100.00;99550.80;1798342;78;21084;-72
2021/05/29 01:48:39;;;;;;;7.27;4.30;;;;;;;17.99;100.00;99548.44;1777926;79;21557;-72
2021/05/29 01:51:05;;;;;;;6.23;3.90;;;;;;;18.00;100.00;99550.05;1788996;79;21032;-72
2021/05/29 01:53:32;;;;;;;8.27;4.40;;;;;;;17.99;100.00;99548.44;1789188;79;21070;-64
2021/05/29 01:56:00;;;;;;;5.70;3.60;;;;;;;17.98;100.00;99548.16;1787797;78;20905;-71
2021/05/29 01:58:27;;;;;;;5.67;3.57;;;;;;;17.97;100.00;99549.22;1770545;80;22160;-71
2021/05/29 02:00:53;;;;;;;7.93;3.87;;;;;;;17.95;100.00;99548.66;1795307;79;21001;-71
2021/05/29 02:03:20;;;;;;;5.13;3.67;;;;;;;17.95;100.00;99546.02;1790748;78;21623;-71
2021/05/29 02:05:47;;;;;;;6.93;4.20;;;;;;;17.95;100.00;99543.38;1786145;79;20917;-62
2021/05/29 02:08:14;;;;;;;6.73;3.43;;;;;;;17.96;100.00;99539.72;1745397;82;21278;-71
2021/05/29 02:10:43;;;;;;;5.57;3.53;;;;;;;17.96;100.00;99533.13;1765896;79;22089;-72
2021/05/29 02:13:27;;;;;;;3.85;3.10;;;;;;;17.96;100.00;99529.97;1773962;79;21190;-71
2021/05/29 02:15:55;;;;;;;6.10;3.67;;;;;;;17.98;100.00;99527.07;1761911;78;21700;-69
2021/05/29 02:18:23;;;;;;;10.20;3.50;;;;;;;18.04;100.00;99530.56;1750704;80;22440;-73
2021/05/29 02:20:53;;;;;;;8.23;4.07;;;;;;;18.06;100.00;99535.05;1769619;80;21049;-72
2021/05/29 02:23:23;;;;;;;9.27;4.87;;;;;;;18.05;100.00;99528.98;1737498;81;21072;-71
2021/05/29 02:25:52;;;;;;;7.30;4.53;;;;;;;18.04;100.00;99534.00;1746080;80;21092;-62
2021/05/29 02:28:19;;;;;;;7.33;4.60;;;;;;;18.03;100.00;99535.02;1756461;79;21031;-70
2021/05/29 02:30:46;;;;;;;8.37;5.83;;;;;;;18.01;100.00;99545.04;1765827;79;21052;-72
2021/05/29 02:33:13;;;;;;;10.50;5.73;;;;;;;17.98;100.00;99541.05;1756912;80;21077;-71
2021/05/29 02:35:40;;;;;;;8.80;6.30;;;;;;;17.96;100.00;99535.77;1773287;80;21086;-71
2021/05/29 02:38:07;;;;;;;8.03;6.17;;;;;;;17.94;100.00;99529.93;1780068;78;21064;-64
2021/05/29 02:40:33;;;;;;;8.50;6.43;;;;;;;17.92;100.00;99529.41;1784085;78;21047;-70
2021/05/29 02:43:00;;;;;;;9.50;5.73;;;;;;;17.92;100.00;99528.09;1786087;78;21019;-72
2021/05/29 02:45:27;;;;;;;9.20;5.30;;;;;;;17.96;100.00;99535.24;1780734;78;20993;-70
2021/05/29 02:47:54;;;;;;;9.17;5.73;;;;;;;18.01;100.00;99533.17;1775281;79;21966;-72
2021/05/29 02:50:22;;;;;;;6.73;4.90;;;;;;;18.07;100.00;99533.50;1767499;81;21013;-64
2021/05/29 02:52:48;;;;;;;6.97;5.13;;;;;;;18.11;100.00;99531.16;1771272;79;21075;-68
2021/05/29 02:55:21;;;;;;;7.93;5.37;;;;;;;18.14;100.00;99529.32;1778528;78;21039;-71
2021/05/29 02:57:43;;;;;;;5.97;4.40;;;;;;;18.20;100.00;99524.38;1776420;79;21060;-65
2021/05/29 03:00:14;;;;;;;6.50;4.37;;;;;;;18.26;100.00;99527.34;1774491;78;21128;-63
2021/05/29 03:02:40;;;;;;;8.10;4.67;;;;;;;18.32;100.00;99532.12;1686244;83;21086;-72
2021/05/29 03:05:08;;;;;;;7.67;5.40;;;;;;;18.33;100.00;99536.34;1688825;83;21203;-71
2021/05/29 03:07:35;;;;;;;8.00;5.13;;;;;;;18.31;100.00;99530.53;1682690;83;21630;-69
2021/05/29 03:10:04;;;;;;;10.27;4.77;;;;;;;18.30;100.00;99530.27;1705653;82;22144;-66
2021/05/29 03:12:37;;;;;;;11.77;4.80;;;;;;;18.34;100.00;99537.95;1684324;82;21039;-72
2021/05/29 03:15:10;;;;;;;7.10;4.83;;;;;;;18.37;100.00;99538.25;1710146;81;21120;-68
2021/05/29 03:17:36;;;;;;;9.18;4.47;;;;;;;18.44;100.00;99537.49;1694519;82;21592;-66
2021/05/29 03:20:05;;;;;;;7.73;4.53;;;;;;;18.47;100.00;99542.27;1708833;81;21001;-67
2021/05/29 03:22:32;;;;;;;6.53;4.97;;;;;;;18.45;100.00;99540.42;1680433;82;21012;-69
2021/05/29 03:24:59;;;;;;;8.47;4.00;;;;;;;18.41;100.00;99539.83;1708532;82;21097;-70
2021/05/29 03:27:25;;;;;;;5.93;3.10;;;;;;;18.39;100.00;99537.98;1712114;82;20920;-70
2021/05/29 03:29:53;;;;;;;5.37;3.27;;;;;;;18.40;100.00;99540.89;1713389;81;21022;-68
2021/05/29 03:32:20;;;;;;;5.90;3.63;;;;;;;18.45;100.00;99537.78;1678804;82;21099;-69
2021/05/29 03:34:47;;;;;;;4.90;2.80;;;;;;;18.51;100.00;99532.53;1702888;82;22149;-67
2021/05/29 03:37:13;;;;;;;5.40;2.70;;;;;;;18.56;100.00;99533.38;1697409;82;21124;-68
2021/05/29 03:39:42;;;;;;;7.70;2.60;;;;;;;18.63;100.00;99536.58;1715420;82;20921;-69
2021/05/29 03:42:09;;;;;;;4.60;2.63;;;;;;;18.69;100.00;99536.89;1708038;83;20885;-67
2021/05/29 03:44:35;;;;;;;7.30;2.90;;;;;;;18.78;100.00;99540.41;1704910;82;21012;-70
2021/05/29 03:47:03;;;;;;;4.80;2.60;;;;;;;18.85;100.00;99538.34;1684250;83;21095;-70
2021/05/29 03:49:30;;;;;;;5.93;2.67;;;;;;;18.92;100.00;99530.47;1695754;83;21123;-70
2021/05/29 03:51:57;;;;;;;5.63;2.97;;;;;;;19.01;100.00;99532.09;1704627;83;21148;-71
2021/05/29 03:54:24;;;;;;;6.60;2.57;;;;;;;19.10;100.00;99533.74;1692040;83;21052;-62
2021/05/29 03:56:51;;;;;;;6.23;2.60;;;;;;;19.18;100.00;99531.92;1697507;83;21080;-70
2021/05/29 03:59:19;;;;;;;7.17;3.27;;;;;;;19.27;100.00;99531.69;1685279;83;21099;-67
2021/05/29 04:01:47;;;;;;;6.20;2.60;;;;;;;19.38;100.00;99537.29;1697367;82;21107;-69
2021/05/29 04:04:13;;;;;;;7.67;3.23;;;;;;;19.51;100.00;99530.75;1691902;82;21534;-62
2021/05/29 04:06:40;;;;;;;7.23;3.37;;;;;;;19.63;100.00;99537.95;1690390;83;21530;-72
2021/05/29 04:09:08;;;;;;;6.67;3.23;;;;;;;19.81;100.00;99547.76;1691981;83;21128;-64
2021/05/29 04:11:36;;;;;;;8.70;3.67;;;;;;;19.94;100.00;99547.27;1692411;83;20996;-72
2021/05/29 04:14:04;;;;;;;11.27;4.20;;;;;;;20.08;100.00;99538.31;1656121;84;21090;-62
2021/05/29 04:16:31;;;;;;;8.13;4.20;;;;;;;20.27;100.00;99545.20;1691282;83;21028;-71
2021/05/29 04:19:00;;;;;;;5.00;3.60;;;;;;;20.49;100.00;99550.22;1689035;84;21002;-62
2021/05/29 04:21:27;;;;;;;10.03;4.43;;;;;;;20.70;100.00;99553.69;1686328;83;21373;-69
2021/05/29 04:23:55;;;;;;;7.87;4.10;;;;;;;20.85;100.00;99554.45;1655832;85;21091;-69
2021/05/29 04:26:21;;;;;;;8.43;4.13;;;;;;;20.96;100.00;99563.72;1696647;83;22365;-70
2021/05/29 04:28:50;;;;;;;8.87;4.30;;;;;;;20.96;100.00;99564.51;1665507;84;21144;-70
2021/05/29 04:31:18;;;;;;;10.10;4.33;;;;;;;20.95;100.00;99560.28;1688049;83;20963;-68
2021/05/29 04:33:45;;;;;;;8.43;4.97;;;;;;;20.92;100.00;99556.05;1686482;83;21036;-69
2021/05/29 04:36:12;;;;;;;10.77;6.00;;;;;;;20.87;100.00;99558.15;1689998;83;20939;-62
2021/05/29 04:38:39;;;;;;;16.07;7.47;;;;;;;20.84;100.00;99560.03;1692357;83;21076;-71
2021/05/29 04:41:06;;;;;;;15.67;8.90;;;;;;;20.85;100.00;99559.75;1660844;84;21537;-62
2021/05/29 04:43:33;;;;;;;13.80;9.07;;;;;;;20.90;100.00;99567.68;1653538;84;21091;-73
2021/05/29 04:46:00;;;;;;;15.60;8.73;;;;;;;20.93;100.00;99565.57;1657676;84;20969;-70
2021/05/29 04:48:26;;;;;;;9.30;6.57;;;;;;;20.92;100.00;99562.13;1697638;83;21639;-65
2021/05/29 04:51:11;;;;;;;8.87;4.63;;;;;;;20.82;100.00;99557.63;1683513;84;21111;-69
2021/05/29 04:53:40;;;;;;;9.70;4.47;;;;;;;20.70;100.00;99548.39;1654934;86;21638;-73
2021/05/29 04:56:08;;;;;;;9.35;4.08;;;;;;;20.56;100.00;99548.92;1664328;84;20954;-64
2021/05/29 04:58:37;;;;;;;7.80;3.63;;;;;;;20.43;100.00;99549.44;1671534;84;21565;-76
2021/05/29 05:01:08;;;;;;;4.80;3.80;;;;;;;20.34;100.00;99543.89;1683604;82;21083;-76
2021/05/29 05:03:36;;;;;;;6.03;3.43;;;;;;;20.29;100.00;99544.40;1707970;81;21185;-72
2021/05/29 05:06:04;;;;;;;11.87;5.83;;;;;;;20.29;100.00;99560.28;1707711;81;21067;-72
2021/05/29 05:08:31;;;;;;;33.40;30.67;;;;;;;20.30;100.00;99557.36;1691512;83;21051;-74
2021/05/29 05:11:00;;;;;;;12.70;9.10;;;;;;;20.33;100.00;99556.83;1700928;81;21475;-69
2021/05/29 05:13:28;;;;;;;6.80;4.63;;;;;;;20.36;100.00;99546.26;1688574;83;21301;-79
2021/05/29 05:15:55;;;;;;;7.93;4.00;;;;;;;20.37;100.00;99539.36;1676437;83;21579;-77
2021/05/29 05:18:22;;;;;;;5.33;3.50;;;;;;;20.41;100.00;99532.48;1682695;83;20924;-74
2021/05/29 05:20:51;;;;;;;7.73;5.93;;;;;;;20.53;100.00;99542.03;1702858;83;21063;-64
2021/05/29 05:23:21;;;;;;;17.83;15.93;;;;;;;20.65;100.00;99557.93;1685206;83;22267;-77
2021/05/29 05:25:46;;;;;;;13.43;12.03;;;;;;;20.67;100.00;99556.33;1730156;82;20957;-74
2021/05/29 05:28:13;;;;;;;8.13;6.50;;;;;;;20.67;100.00;99548.38;1710914;81;21095;-63
2021/05/29 05:30:41;;;;;;;8.47;5.77;;;;;;;20.77;100.00;99534.34;1679445;83;21115;-75
2021/05/29 05:33:08;;;;;;;12.00;4.80;;;;;;;20.89;100.00;99512.33;1683513;83;21134;-77
2021/05/29 05:35:36;;;;;;;5.40;3.67;;;;;;;20.97;100.00;99508.33;1684038;83;21116;-75
2021/05/29 05:38:03;;;;;;;6.90;3.97;;;;;;;21.03;100.00;99506.73;1659676;84;21100;-72
2021/05/29 05:40:30;;;;;;;5.90;3.63;;;;;;;21.08;100.00;99508.03;1696837;82;21090;-64
2021/05/29 05:42:57;;;;;;;6.10;3.10;;;;;;;21.10;100.00;99509.89;1690418;83;21009;-67
2021/05/29 05:45:23;;;;;;;4.63;2.87;;;;;;;21.16;100.00;99505.88;1693775;83;21095;-72
2021/05/29 05:47:50;;;;;;;4.77;2.93;;;;;;;21.19;100.00;99504.81;1684987;82;21246;-73
2021/05/29 05:50:17;;;;;;;5.33;3.30;;;;;;;21.21;100.00;99515.92;1718354;81;21060;-76
2021/05/29 05:52:43;;;;;;;6.77;3.40;;;;;;;21.26;100.00;99511.16;1704322;81;21632;-63
2021/05/29 05:55:12;;;;;;;5.07;3.67;;;;;;;21.41;100.00;99511.12;1682987;83;20981;-80
2021/05/29 05:57:41;;;;;;;7.67;4.60;;;;;;;21.64;100.00;99516.30;1708141;82;21645;-75
2021/05/29 06:00:14;;;;;;;6.60;4.57;;;;;;;22.02;100.00;99518.70;1697366;83;20932;-77
2021/05/29 06:02:42;;;;;;;5.77;3.80;;;;;;;22.83;100.00;99521.73;1683767;82;20928;-63
2021/05/29 06:05:13;;;;;;;6.80;3.80;;;;;;;24.27;100.00;99516.15;1717482;82;21088;-69
2021/05/29 06:07:41;;;;;;;8.93;3.80;;;;;;;25.87;100.00;99517.59;1710434;81;20992;-67
2021/05/29 06:10:09;;;;;;;6.58;4.72;;;;;;;27.28;100.00;99514.81;1714839;81;20941;-69
2021/05/29 06:12:38;;;;;;;9.13;4.40;;;;;;;27.86;100.00;99507.47;1689490;83;21546;-62
2021/05/29 06:18:19;;;;;;;10.18;4.53;;;;;;;28.00;100.00;99508.09;1723846;81;21112;-68
2021/05/29 06:20:40;;;;;;;6.70;4.78;;;;;;;28.29;100.00;99503.92;1715968;81;21461;-69
2021/05/29 06:23:04;;;;;;;8.13;4.62;;;;;;;28.94;100.00;99497.39;1721440;81;21058;-69
2021/05/29 06:25:30;;;;;;;7.42;4.42;;;;;;;28.94;100.00;99497.39;1725067;81;21071;-68
2021/05/29 06:27:57;;;;;;;5.85;4.08;;;;;;;29.04;100.00;99487.66;1737721;80;21577;-67
2021/05/29 06:30:23;;;;;;;6.08;4.42;;;;;;;29.07;100.00;99487.58;1710765;81;21628;-64
2021/05/29 06:32:50;;;;;;;6.03;4.37;;;;;;;29.24;99.33;99490.70;1719482;81;21494;-68
2021/05/29 06:35:16;;;;;;;9.58;4.58;;;;;;;29.77;100.00;99479.81;1721989;81;20888;-68
2021/05/29 06:37:43;;;;;;;6.20;4.05;;;;;;;30.45;91.57;99491.55;1718940;81;20968;-69
2021/05/29 06:40:17;;;;;;;6.75;3.95;;;;;;;30.59;78.15;99487.98;1721236;81;21008;-67
2021/05/29 06:42:44;;;;;;;7.47;3.90;;;;;;;30.55;76.66;99491.13;1719004;81;21772;-66
2021/05/29 06:45:12;;;;;;;8.30;5.03;;;;;;;30.70;75.85;99488.33;1731292;80;21017;-66
2021/05/29 06:47:39;;;;;;;6.92;4.10;;;;;;;30.96;75.39;99486.11;1710719;81;20944;-68
2021/05/29 06:50:07;;;;;;;7.03;3.75;;;;;;;31.31;68.41;99481.58;1725073;81;21024;-61
2021/05/29 06:52:36;;;;;;;5.72;3.08;;;;;;;31.76;66.55;99477.84;1715212;81;21048;-66
2021/05/29 07:00:17;;;;;;;6.28;3.77;;;;;;;33.69;56.89;99473.52;1707694;81;21055;-66
2021/05/29 07:02:44;;;;;;;6.17;2.83;;;;;;;34.57;51.72;99477.59;1722203;81;21127;-66
2021/05/29 07:05:11;;;;;;;7.28;2.10;;;;;;;35.42;45.79;99476.67;1719639;81;20995;-65
2021/05/29 07:07:40;;;;;;;5.15;2.00;;;;;;;36.08;38.99;99474.31;1724481;81;21676;-67
2021/05/29 07:10:08;;;;;;;5.55;2.55;;;;;;;36.63;35.70;99473.01;1718332;81;21071;-66
2021/05/29 07:12:35;;;;;;;4.78;2.67;;;;;;;36.92;36.33;99467.18;1726438;81;21047;-67
2021/05/29 07:15:06;;;;;;;4.97;2.40;;;;;;;37.36;36.02;99472.27;1727664;81;21099;-65
2021/05/29 07:17:39;;;;;;;4.75;2.22;;;;;;;37.88;34.08;99466.03;1731204;81;21111;-66
2021/05/29 07:20:04;;;;;;;4.62;2.50;;;;;;;38.04;30.37;99461.02;1699883;82;21043;-67
2021/05/29 07:22:31;;;;;;;4.08;2.33;;;;;;;37.81;30.86;99458.63;1729416;81;21131;-66
2021/05/29 07:24:58;;;;;;;3.90;1.90;;;;;;;37.87;31.37;99458.42;1715025;82;21098;-66
2021/05/29 07:27:24;;;;;;;4.08;2.12;;;;;;;37.99;31.21;99455.94;1739017;81;20937;-67
2021/05/29 07:29:51;;;;;;;3.55;1.60;;;;;;;38.06;31.57;99456.53;1739414;81;21011;-62
2021/05/29 07:32:18;;;;;;;5.10;2.15;;;;;;;37.95;29.70;99449.12;1731031;81;21162;-67
2021/05/29 07:34:45;;;;;;;3.90;1.77;;;;;;;37.72;29.39;99452.77;1724481;80;20994;-67
2021/05/29 07:37:11;;;;;;;2.92;1.65;;;;;;;37.66;29.73;99448.89;1698307;82;21186;-67
2021/05/29 07:39:38;;;;;;;4.62;2.08;;;;;;;37.71;28.92;99451.22;1697367;82;20996;-66
2021/05/29 07:42:05;;;;;;;3.30;1.87;;;;;;;37.83;29.70;99447.34;1723180;80;21039;-69
2021/05/29 07:44:32;;;;;;;5.75;1.77;;;;;;;38.02;29.71;99441.56;1713711;81;21147;-65
2021/05/29 07:46:59;;;;;;;3.77;1.80;;;;;;;38.28;29.61;99439.03;1719208;81;20933;-67
2021/05/29 07:49:26;;;;;;;2.85;1.55;;;;;;;38.47;29.34;99434.38;1717027;81;21176;-68
2021/05/29 07:51:52;;;;;;;3.35;1.50;;;;;;;38.59;29.41;99440.18;1731281;81;21032;-63
2021/05/29 07:54:19;;;;;;;3.30;1.80;;;;;;;38.70;27.76;99440.16;1703907;81;20927;-70
2021/05/29 07:56:46;;;;;;;3.12;1.70;;;;;;;38.49;28.45;99438.25;1738010;81;21087;-63
2021/05/29 07:59:17;;;;;;;7.72;1.92;;;;;;;38.16;26.70;99440.20;1715121;82;21028;-66
2021/05/29 08:01:43;;;;;;;5.83;2.00;;;;;;;37.46;27.21;99434.25;1729859;81;21664;-62
2021/05/29 08:04:13;;;;;;;4.80;2.00;;;;;;;36.67;28.02;99430.95;1694992;81;21000;-66
2021/05/29 08:06:39;;;;;;;4.87;1.90;;;;;;;35.88;28.24;99433.03;1688661;83;21666;-68
2021/05/29 08:09:07;;;;;;;7.00;2.20;;;;;;;34.99;29.34;99432.77;1690000;82;21101;-70
2021/05/29 08:11:36;;;;;;;2.10;1.22;;;;;;;34.16;29.72;99431.30;1721878;81;21040;-69
2021/05/29 08:14:06;;;;;;;4.75;2.10;;;;;;;33.57;30.66;99425.81;1692732;82;21103;-69
2021/05/29 08:16:33;;;;;;;5.58;1.80;;;;;;;33.15;32.52;99434.03;1737289;80;21025;-68
2021/05/29 08:19:00;;;;;;;4.30;1.80;;;;;;;32.74;31.61;99429.26;1723373;81;20984;-66
2021/05/29 08:21:28;;;;;;;5.58;1.62;;;;;;;32.37;32.53;99435.70;1720638;81;21114;-66
2021/05/29 08:23:55;;;;;;;3.12;1.62;;;;;;;32.19;32.81;99440.66;1715436;81;20980;-69
2021/05/29 08:26:22;;;;;;;3.65;1.92;;;;;;;32.08;33.39;99445.00;1709072;81;21083;-62
2021/05/29 08:28:50;;;;;;;4.95;2.08;;;;;;;32.01;34.30;99439.42;1719629;81;21044;-68
2021/05/29 08:31:17;;;;;;;5.10;2.27;;;;;;;31.87;34.06;99440.42;1721589;80;21024;-68
2021/05/29 08:33:44;;;;;;;4.62;2.40;;;;;;;31.57;35.35;99444.02;1715398;81;21111;-66
2021/05/29 08:36:11;;;;;;;6.33;2.37;;;;;;;31.37;36.19;99442.53;1718971;81;21075;-64
2021/05/29 08:38:38;;;;;;;5.37;2.20;;;;;;;31.31;37.29;99439.84;1719234;81;21041;-66
2021/05/29 08:41:05;;;;;;;3.67;2.08;;;;;;;31.17;36.38;99446.13;1721139;81;21058;-66
2021/05/29 08:43:32;;;;;;;5.03;2.10;;;;;;;31.12;36.58;99452.54;1720814;81;21016;-67
2021/05/29 08:45:59;;;;;;;3.62;2.37;;;;;;;31.06;37.88;99451.20;1718425;81;21107;-67
2021/05/29 08:48:26;;;;;;;5.08;3.17;;;;;;;31.03;39.84;99453.24;1720683;81;21048;-63
2021/05/29 08:53:38;;;;;;;5.80;2.22;;;;;;;30.99;38.10;99438.90;1719767;81;21036;-68
2021/05/29 08:56:05;;;;;;;3.50;1.98;;;;;;;31.04;38.16;99442.69;1718220;81;21088;-65
2021/05/29 08:58:32;;;;;;;5.97;2.42;;;;;;;31.14;37.48;99439.53;1723380;80;22066;-62
2021/05/29 09:01:00;;;;;;;4.05;2.00;;;;;;;31.30;36.59;99436.13;1717875;81;21012;-65
2021/05/29 09:03:49;;;;;;;5.37;1.98;;;;;;;31.52;35.96;99432.13;1723569;81;21027;-60
2021/05/29 09:06:20;;;;;;;3.52;1.95;;;;;;;31.74;35.18;99434.27;1725107;81;21104;-66
2021/05/29 09:08:55;;;;;;;3.70;2.00;;;;;;;32.03;35.12;99429.66;1717784;81;21095;-66
2021/05/29 09:11:52;;;;;;;3.27;1.80;;;;;;;32.10;36.51;99425.80;1725924;81;22209;-67
2021/05/29 09:14:28;;;;;;;4.92;2.00;;;;;;;32.07;38.15;99420.52;1727059;81;21119;-66
2021/05/29 09:17:19;;;;;;;3.52;2.05;;;;;;;31.99;36.38;99417.44;1724007;81;20979;-67
2021/05/29 09:20:11;;;;;;;5.45;2.50;;;;;;;32.04;37.00;99418.52;1722307;81;26329;-67
2021/05/29 09:22:58;;;;;;;5.35;2.00;;;;;;;32.22;39.11;99418.39;1667994;83;21102;-68
2021/05/29 09:25:26;;;;;;;4.72;2.22;;;;;;;32.46;37.31;99409.92;1667361;83;21152;-60
2021/05/29 09:28:04;;;;;;;3.55;2.05;;;;;;;32.61;39.20;99406.98;1668812;83;21140;-67
2021/05/29 09:30:47;;;;;;;5.20;2.08;;;;;;;32.79;36.93;99415.48;1696774;82;21131;-62
2021/05/29 09:33:26;;;;;;;3.25;1.80;;;;;;;32.91;36.98;99407.25;1695910;82;21047;-62
2021/05/29 09:36:01;;;;;;;4.12;1.80;;;;;;;33.04;36.44;99403.33;1697436;82;21146;-68
2021/05/29 09:38:40;;;;;;;5.22;1.70;;;;;;;33.22;34.28;99400.19;1698108;81;21076;-68
2021/05/29 09:41:33;;;;;;;5.10;1.85;;;;;;;33.74;33.06;99399.66;1666682;83;21016;-69
2021/05/29 09:44:00;;;;;;;4.35;1.80;;;;;;;34.17;32.02;99398.27;1688470;83;21588;-65
2021/05/29 09:46:30;;;;;;;8.60;2.58;;;;;;;34.34;32.07;99394.50;1725234;81;22525;-63
2021/05/29 09:49:01;;;;;;;5.67;1.70;;;;;;;34.45;32.27;99393.88;1719741;81;21091;-69
2021/05/29 09:51:35;;;;;;;4.58;1.60;;;;;;;34.44;30.53;99397.16;1718394;81;21113;-64
2021/05/29 09:54:10;;;;;;;4.90;2.12;;;;;;;34.47;29.28;99396.98;1719909;81;22413;-70
2021/05/29 09:56:43;;;;;;;9.33;2.65;;;;;;;34.61;29.15;99389.89;1718601;81;21070;-69
2021/05/29 09:59:17;;;;;;;5.03;2.00;;;;;;;34.93;28.15;99390.91;1719001;81;21060;-64
2021/05/29 10:01:53;;;;;;;3.80;2.20;;;;;;;35.02;28.11;99386.00;1721028;81;21993;-68
2021/05/29 10:04:39;;;;;;;4.12;2.10;;;;;;;35.20;28.43;99379.45;1717401;81;21119;-70
2021/05/29 10:07:10;;;;;;;5.87;2.27;;;;;;;35.05;27.43;99370.95;1725379;81;21083;-70
2021/05/29 10:09:36;;;;;;;;;;;;;;;35.22;27.54;99369.58;1731947;81;21028;-70
2021/05/29 10:12:04;;;;;;;4.10;2.02;;;;;;;35.34;28.68;99371.45;1730303;81;20192;-71
2021/05/29 10:14:31;;;;;;;7.58;2.35;;;;;;;35.42;28.91;99375.05;1725839;81;21645;-68
2021/05/29 10:16:59;;;;;;;3.67;1.87;;;;;;;35.72;28.47;99365.45;1726907;81;21102;-69
2021/05/29 10:19:26;;;;;;;5.22;2.17;;;;;;;36.25;27.91;99371.13;1730222;81;21198;-67
2021/05/29 10:21:54;;;;;;;4.15;2.00;;;;;;;36.47;26.42;99365.29;1728010;81;20948;-68
2021/05/29 10:24:24;;;;;;;5.60;2.27;;;;;;;36.50;26.20;99358.53;1725659;81;21008;-71
2021/05/29 10:26:52;;;;;;;3.77;1.60;;;;;;;36.67;25.98;99354.36;1728192;81;20968;-70
2021/05/29 10:29:26;;;;;;;4.28;1.95;;;;;;;36.73;26.04;99351.46;1723564;81;21061;-68
2021/05/29 10:32:19;;;;;;;6.12;1.85;;;;;;;36.60;25.68;99348.89;1726441;81;21007;-63
2021/05/29 10:35:12;;;;;;;8.00;2.52;;;;;;;36.40;26.32;99348.34;1731533;81;21115;-68
2021/05/29 10:37:44;;;;;;;7.97;2.27;;;;;;;36.16;26.38;99350.34;1701196;82;21202;-68
2021/05/29 10:40:28;;;;;;;8.68;2.47;;;;;;;35.55;26.96;99345.18;1729060;81;21064;-67
2021/05/29 10:43:13;;;;;;;11.57;2.72;;;;;;;35.11;27.46;99346.44;1725586;81;21186;-63
2021/05/29 10:45:58;;;;;;;9.08;3.10;;;;;;;34.78;28.47;99351.26;1725348;81;21004;-68
2021/05/29 10:48:26;;;;;;;10.82;3.02;;;;;;;34.62;28.26;99343.30;1730121;81;20968;-63
2021/05/29 10:51:04;;;;;;;8.68;2.50;;;;;;;34.78;29.52;99341.78;1726904;81;21628;-67
2021/05/29 10:53:55;;;;;;;9.10;2.75;;;;;;;34.95;28.75;99330.95;1727898;81;21047;-67
2021/05/29 10:56:26;;;;;;;7.80;2.45;;;;;;;35.20;28.32;99332.62;1724959;81;21151;-68
2021/05/29 10:59:15;;;;;;;8.70;2.75;;;;;;;35.43;27.71;99330.52;1726570;81;21305;-62
2021/05/29 11:01:49;;;;;;;10.98;3.05;;;;;;;35.07;27.85;99332.84;1726430;81;21071;-63
2021/05/29 11:04:24;;;;;;;7.58;2.90;;;;;;;34.58;29.06;99341.89;1709963;81;22598;-65
2021/05/29 11:07:15;;;;;;;7.50;2.37;;;;;;;34.45;28.77;99340.54;1718160;81;21316;-69
2021/05/29 11:09:48;;;;;;;8.85;2.42;;;;;;;34.37;28.21;99335.60;1720630;81;21068;-69
2021/05/29 11:12:16;;;;;;;7.15;2.30;;;;;;;34.29;28.89;99335.88;1718992;81;21624;-69
2021/05/29 11:14:56;;;;;;;6.45;2.10;;;;;;;34.13;29.16;99331.41;1719264;81;21103;-68
2021/05/29 11:17:27;;;;;;;3.23;2.20;;;;;;;34.01;29.43;99328.88;1720573;81;21546;-71
2021/05/29 11:20:06;;;;;;;5.03;2.27;;;;;;;34.11;30.12;99328.27;1710911;81;21050;-61
2021/05/29 11:22:46;;;;;;;8.55;2.87;;;;;;;34.32;29.79;99321.05;1718606;81;21166;-69
2021/05/29 11:25:15;;;;;;;5.60;2.33;;;;;;;34.56;28.56;99319.84;1717625;81;21100;-68
2021/05/29 11:27:43;;;;;;;3.65;1.92;;;;;;;34.64;27.86;99322.06;1717974;81;21131;-65
2021/05/29 11:30:17;;;;;;;7.47;2.20;;;;;;;34.58;28.08;99318.89;1711738;81;21238;-67
2021/05/29 11:35:43;;;;;;;8.80;2.62;;;;;;;34.05;29.36;99311.36;1717149;81;21095;-69
2021/05/29 11:38:32;;;;;;;9.20;3.00;;;;;;;33.87;29.56;99303.73;1719147;81;21584;-70
2021/05/29 11:41:11;;;;;;;;;;;;;;;33.54;29.96;99311.11;1717959;81;20984;-67
2021/05/29 11:43:55;;;;;;;5.28;1.92;;;;;;;33.17;30.41;99302.69;1717529;81;20304;-68
2021/05/29 11:46:29;;;;;;;5.50;2.12;;;;;;;32.97;30.62;99305.21;1717146;81;21119;-67
2021/05/29 11:49:04;;;;;;;6.67;2.12;;;;;;;32.70;30.94;99297.72;1722051;81;21709;-67
2021/05/29 11:51:39;;;;;;;6.90;2.10;;;;;;;32.58;32.02;99286.27;1718473;81;21112;-67
2021/05/29 11:54:15;;;;;;;4.37;2.05;;;;;;;32.53;31.46;99285.20;1719605;81;21111;-63